sensor_id;sensor_type;location;lat;lon;timestamp;pressure;altitude;pressure_sealevel;temperature;humidity
73457;BME280;61691;53.072;6.582;2024-03-08T00:00:12;102207.66;;;2.43;81.48
73457;BME280;61691;53.072;6.582;2024-03-08T00:02:46;102195.47;;;2.42;81.08
73457;BME280;61691;53.072;6.582;2024-03-08T00:05:14;102192.16;;;2.37;81.64
73457;BME280;61691;53.072;6.582;2024-03-08T00:07:42;102144.25;;;2.09;81.32
73457;BME280;61691;53.072;6.582;2024-03-08T00:10:12;102180.19;;;2.30;81.69
73457;BME280;61691;53.072;6.582;2024-03-08T00:12:43;102193.16;;;2.33;81.95
73457;BME280;61691;53.072;6.582;2024-03-08T00:15:15;102187.88;;;2.34;81.93
73457;BME280;61691;53.072;6.582;2024-03-08T00:17:44;102159.72;;;2.15;81.69
73457;BME280;61691;53.072;6.582;2024-03-08T00:20:12;102140.81;;;2.07;81.75
73457;BME280;61691;53.072;6.582;2024-03-08T00:22:40;102176.75;;;2.28;81.77
73457;BME280;61691;53.072;6.582;2024-03-08T00:25:08;102178.38;;;2.32;82.07
73457;BME280;61691;53.072;6.582;2024-03-08T00:27:42;102186.34;;;2.27;82.08
73457;BME280;61691;53.072;6.582;2024-03-08T00:30:09;102188.84;;;2.32;82.01
73457;BME280;61691;53.072;6.582;2024-03-08T00:32:38;102165.66;;;2.20;82.28
73457;BME280;61691;53.072;6.582;2024-03-08T00:35:05;102190.56;;;2.33;82.07
73457;BME280;61691;53.072;6.582;2024-03-08T00:37:36;102188.84;;;2.32;82.17
73457;BME280;61691;53.072;6.582;2024-03-08T00:40:03;102189.75;;;2.31;81.96
73457;BME280;61691;53.072;6.582;2024-03-08T00:42:31;102169.91;;;2.24;82.02
73457;BME280;61691;53.072;6.582;2024-03-08T00:45:01;102178.53;;;2.26;81.99
73457;BME280;61691;53.072;6.582;2024-03-08T00:47:28;102183.78;;;2.26;82.14
73457;BME280;61691;53.072;6.582;2024-03-08T00:49:56;102139.25;;;2.01;81.91
73457;BME280;61691;53.072;6.582;2024-03-08T00:52:24;102151.06;;;2.13;82.26
73457;BME280;61691;53.072;6.582;2024-03-08T00:54:51;102171.72;;;2.22;82.39
73457;BME280;61691;53.072;6.582;2024-03-08T00:57:18;102169.09;;;2.22;82.51
73457;BME280;61691;53.072;6.582;2024-03-08T00:59:46;102132.25;;;2.02;82.03
73457;BME280;61691;53.072;6.582;2024-03-08T01:02:14;102159.53;;;2.21;82.18
73457;BME280;61691;53.072;6.582;2024-03-08T01:04:41;102157.03;;;2.18;82.46
73457;BME280;61691;53.072;6.582;2024-03-08T01:07:08;102150.94;;;2.17;82.65
73457;BME280;61691;53.072;6.582;2024-03-08T01:09:36;102136.19;;;2.15;82.16
73457;BME280;61691;53.072;6.582;2024-03-08T01:12:03;102144.78;;;2.18;82.60
73457;BME280;61691;53.072;6.582;2024-03-08T01:14:30;102120.75;;;2.07;82.66
73457;BME280;61691;53.072;6.582;2024-03-08T01:16:58;102113.06;;;2.03;82.50
73457;BME280;61691;53.072;6.582;2024-03-08T01:19:26;102129.25;;;2.14;82.57
73457;BME280;61691;53.072;6.582;2024-03-08T01:21:53;102124.91;;;2.13;82.47
73457;BME280;61691;53.072;6.582;2024-03-08T01:24:23;102114.66;;;2.07;82.24
73457;BME280;61691;53.072;6.582;2024-03-08T01:26:52;102121.41;;;2.14;82.30
73457;BME280;61691;53.072;6.582;2024-03-08T01:29:19;102100.09;;;1.98;82.67
73457;BME280;61691;53.072;6.582;2024-03-08T01:31:46;102111.03;;;2.11;82.56
73457;BME280;61691;53.072;6.582;2024-03-08T01:34:14;102092.22;;;2.00;82.64
73457;BME280;61691;53.072;6.582;2024-03-08T01:36:41;102089.59;;;2.00;82.77
73457;BME280;61691;53.072;6.582;2024-03-08T01:39:08;102048.41;;;1.80;82.33
73457;BME280;61691;53.072;6.582;2024-03-08T01:41:36;102057.91;;;1.82;82.49
73457;BME280;61691;53.072;6.582;2024-03-08T01:44:04;102090.31;;;2.05;82.61
73457;BME280;61691;53.072;6.582;2024-03-08T01:46:34;102073.31;;;1.91;82.45
73457;BME280;61691;53.072;6.582;2024-03-08T01:49:02;102084.41;;;1.98;82.64
73457;BME280;61691;53.072;6.582;2024-03-08T01:51:29;102082.66;;;1.99;82.35
73457;BME280;61691;53.072;6.582;2024-03-08T01:53:59;102091.44;;;1.96;82.63
73457;BME280;61691;53.072;6.582;2024-03-08T01:56:29;102079.22;;;1.97;82.38
73457;BME280;61691;53.072;6.582;2024-03-08T01:58:58;102022.84;;;1.62;82.49
73457;BME280;61691;53.072;6.582;2024-03-08T02:01:27;102073.31;;;1.91;82.66
73457;BME280;61691;53.072;6.582;2024-03-08T02:03:55;102071.59;;;1.90;82.66
73457;BME280;61691;53.072;6.582;2024-03-08T02:06:23;102071.59;;;1.90;82.73
73457;BME280;61691;53.072;6.582;2024-03-08T02:08:50;102022.00;;;1.61;82.40
73457;BME280;61691;53.072;6.582;2024-03-08T02:11:18;102055.34;;;1.81;82.33
73457;BME280;61691;53.072;6.582;2024-03-08T02:13:48;102052.13;;;1.73;82.76
73457;BME280;61691;53.072;6.582;2024-03-08T02:16:20;102067.47;;;1.83;82.78
73457;BME280;61691;53.072;6.582;2024-03-08T02:18:48;102056.41;;;1.75;82.52
73457;BME280;61691;53.072;6.582;2024-03-08T02:21:17;102058.81;;;1.81;82.31
73457;BME280;61691;53.072;6.582;2024-03-08T02:23:48;102036.50;;;1.71;82.59
73457;BME280;61691;53.072;6.582;2024-03-08T02:26:16;102053.75;;;1.77;82.48
73457;BME280;61691;53.072;6.582;2024-03-08T02:28:44;102070.19;;;1.80;82.48
73457;BME280;61691;53.072;6.582;2024-03-08T02:31:12;102065.06;;;1.77;82.35
73457;BME280;61691;53.072;6.582;2024-03-08T02:33:39;102031.63;;;1.59;82.35
73457;BME280;61691;53.072;6.582;2024-03-08T02:36:07;102059.88;;;1.76;82.50
73457;BME280;61691;53.072;6.582;2024-03-08T02:38:34;102030.06;;;1.53;82.42
73457;BME280;61691;53.072;6.582;2024-03-08T02:41:01;102044.53;;;1.65;82.62
73457;BME280;61691;53.072;6.582;2024-03-08T02:43:31;102029.22;;;1.53;82.11
73457;BME280;61691;53.072;6.582;2024-03-08T02:45:58;102048.13;;;1.61;82.22
73457;BME280;61691;53.072;6.582;2024-03-08T02:48:26;102033.47;;;1.57;82.52
73457;BME280;61691;53.072;6.582;2024-03-08T02:50:55;102042.91;;;1.61;82.12
73457;BME280;61691;53.072;6.582;2024-03-08T02:53:23;102011.22;;;1.44;81.86
73457;BME280;61691;53.072;6.582;2024-03-08T02:55:51;102030.84;;;1.57;81.90
73457;BME280;61691;53.072;6.582;2024-03-08T02:58:18;102031.13;;;1.48;81.88
73457;BME280;61691;53.072;6.582;2024-03-08T03:00:46;102039.69;;;1.53;82.34
73457;BME280;61691;53.072;6.582;2024-03-08T03:03:13;102040.44;;;1.57;82.30
73457;BME280;61691;53.072;6.582;2024-03-08T03:05:40;102027.44;;;1.55;81.99
73457;BME280;61691;53.072;6.582;2024-03-08T03:08:15;102032.66;;;1.55;82.14
73457;BME280;61691;53.072;6.582;2024-03-08T03:10:45;102007.09;;;1.37;82.31
73457;BME280;61691;53.072;6.582;2024-03-08T03:13:13;102026.88;;;1.44;82.33
73457;BME280;61691;53.072;6.582;2024-03-08T03:15:41;102017.44;;;1.40;82.04
73457;BME280;61691;53.072;6.582;2024-03-08T03:18:11;102030.41;;;1.43;82.32
73457;BME280;61691;53.072;6.582;2024-03-08T03:20:39;102014.13;;;1.35;81.68
73457;BME280;61691;53.072;6.582;2024-03-08T03:23:10;102017.53;;;1.37;82.23
73457;BME280;61691;53.072;6.582;2024-03-08T03:25:42;102021.03;;;1.36;82.31
73457;BME280;61691;53.072;6.582;2024-03-08T03:28:10;102025.34;;;1.38;82.10
73457;BME280;61691;53.072;6.582;2024-03-08T03:30:41;102021.22;;;1.30;82.37
73457;BME280;61691;53.072;6.582;2024-03-08T03:33:09;102014.28;;;1.29;82.28
73457;BME280;61691;53.072;6.582;2024-03-08T03:35:37;101991.03;;;1.21;82.00
73457;BME280;61691;53.072;6.582;2024-03-08T03:38:05;101979.91;;;1.14;82.07
73457;BME280;61691;53.072;6.582;2024-03-08T03:40:33;101948.38;;;0.93;82.11
73457;BME280;61691;53.072;6.582;2024-03-08T03:43:00;101972.34;;;1.05;81.76
73457;BME280;61691;53.072;6.582;2024-03-08T03:45:28;101993.78;;;1.16;81.83
73457;BME280;61691;53.072;6.582;2024-03-08T03:47:56;101999.69;;;1.23;81.85
73457;BME280;61691;53.072;6.582;2024-03-08T03:50:23;102000.53;;;1.24;81.99
73457;BME280;61691;53.072;6.582;2024-03-08T03:52:50;101998.81;;;1.23;82.08
73457;BME280;61691;53.072;6.582;2024-03-08T03:55:18;101976.69;;;1.06;82.04
73457;BME280;61691;53.072;6.582;2024-03-08T03:57:47;102000.69;;;1.19;82.11
73457;BME280;61691;53.072;6.582;2024-03-08T04:00:14;101995.38;;;1.21;81.93
73457;BME280;61691;53.072;6.582;2024-03-08T04:02:42;101973.16;;;1.07;82.10
73457;BME280;61691;53.072;6.582;2024-03-08T04:05:10;101993.78;;;1.16;82.23
73457;BME280;61691;53.072;6.582;2024-03-08T04:07:38;101968.13;;;1.01;81.95
73457;BME280;61691;53.072;6.582;2024-03-08T04:10:07;101986.84;;;1.15;82.40
73457;BME280;61691;53.072;6.582;2024-03-08T04:12:36;101982.53;;;1.14;81.70
73457;BME280;61691;53.072;6.582;2024-03-08T04:15:04;101986.09;;;1.12;81.92
73457;BME280;61691;53.072;6.582;2024-03-08T04:17:34;101974.97;;;1.05;81.85
73457;BME280;61691;53.072;6.582;2024-03-08T04:20:04;101980.97;;;1.09;82.02
73457;BME280;61691;53.072;6.582;2024-03-08T04:22:37;101981.03;;;1.06;82.16
73457;BME280;61691;53.072;6.582;2024-03-08T04:25:05;101918.63;;;0.69;82.33
73457;BME280;61691;53.072;6.582;2024-03-08T04:27:33;101959.59;;;0.96;81.95
73457;BME280;61691;53.072;6.582;2024-03-08T04:30:02;101953.72;;;0.90;81.92
73457;BME280;61691;53.072;6.582;2024-03-08T04:32:29;101961.34;;;0.96;82.11
73457;BME280;61691;53.072;6.582;2024-03-08T04:34:57;101960.50;;;0.95;82.32
73457;BME280;61691;53.072;6.582;2024-03-08T04:37:24;101959.69;;;0.93;81.95
73457;BME280;61691;53.072;6.582;2024-03-08T04:39:52;101952.00;;;0.89;81.96
73457;BME280;61691;53.072;6.582;2024-03-08T04:42:19;101946.13;;;0.82;82.16
73457;BME280;61691;53.072;6.582;2024-03-08T04:44:47;101938.34;;;0.79;82.32
73457;BME280;61691;53.072;6.582;2024-03-08T04:47:14;101942.69;;;0.80;82.47
73457;BME280;61691;53.072;6.582;2024-03-08T04:49:43;101961.47;;;0.91;82.47
73457;BME280;61691;53.072;6.582;2024-03-08T04:52:10;101947.72;;;0.86;82.29
73457;BME280;61691;53.072;6.582;2024-03-08T04:54:37;101930.59;;;0.76;82.80
73457;BME280;61691;53.072;6.582;2024-03-08T04:57:05;101952.91;;;0.88;82.28
73457;BME280;61691;53.072;6.582;2024-03-08T04:59:35;101949.50;;;0.84;82.04
73457;BME280;61691;53.072;6.582;2024-03-08T05:02:03;101944.28;;;0.84;82.31
73457;BME280;61691;53.072;6.582;2024-03-08T05:04:31;101944.28;;;0.84;82.12
73457;BME280;61691;53.072;6.582;2024-03-08T05:06:58;101954.66;;;0.87;81.59
73457;BME280;61691;53.072;6.582;2024-03-08T05:09:28;101934.75;;;0.83;82.16
73457;BME280;61691;53.072;6.582;2024-03-08T05:11:56;101915.25;;;0.67;82.11
73457;BME280;61691;53.072;6.582;2024-03-08T05:14:25;101923.78;;;0.72;82.01
73457;BME280;61691;53.072;6.582;2024-03-08T05:16:53;101931.63;;;0.72;82.27
73457;BME280;61691;53.072;6.582;2024-03-08T05:19:20;101916.03;;;0.69;81.78
73457;BME280;61691;53.072;6.582;2024-03-08T05:21:49;101874.09;;;0.46;81.96
73457;BME280;61691;53.072;6.582;2024-03-08T05:24:17;101935.47;;;0.88;82.13
73457;BME280;61691;53.072;6.582;2024-03-08T05:26:46;101926.75;;;0.89;82.00
73457;BME280;61691;53.072;6.582;2024-03-08T05:29:14;101908.88;;;0.75;81.91
73457;BME280;61691;53.072;6.582;2024-03-08T05:31:49;101932.91;;;0.87;82.08
73457;BME280;61691;53.072;6.582;2024-03-08T05:34:18;101899.59;;;0.67;81.71
73457;BME280;61691;53.072;6.582;2024-03-08T05:36:47;101937.22;;;0.88;82.02
73457;BME280;61691;53.072;6.582;2024-03-08T05:39:17;101939.00;;;0.87;81.49
73457;BME280;61691;53.072;6.582;2024-03-08T05:41:45;101938.09;;;0.88;81.58
73457;BME280;61691;53.072;6.582;2024-03-08T05:44:13;101921.81;;;0.80;81.75
73457;BME280;61691;53.072;6.582;2024-03-08T05:46:40;101911.63;;;0.71;81.51
73457;BME280;61691;53.072;6.582;2024-03-08T05:49:07;101911.44;;;0.77;81.64
73457;BME280;61691;53.072;6.582;2024-03-08T05:51:38;101925.31;;;0.79;81.63
73457;BME280;61691;53.072;6.582;2024-03-08T05:54:08;101939.91;;;0.85;81.34
73457;BME280;61691;53.072;6.582;2024-03-08T05:56:38;101898.09;;;0.58;81.70
73457;BME280;61691;53.072;6.582;2024-03-08T05:59:10;101930.53;;;0.79;81.60
73457;BME280;61691;53.072;6.582;2024-03-08T06:01:37;101925.50;;;0.73;81.38
73457;BME280;61691;53.072;6.582;2024-03-08T06:04:05;101909.91;;;0.70;81.61
73457;BME280;61691;53.072;6.582;2024-03-08T06:06:32;101908.13;;;0.72;81.62
73457;BME280;61691;53.072;6.582;2024-03-08T06:08:59;101932.25;;;0.80;81.52
73457;BME280;61691;53.072;6.582;2024-03-08T06:11:27;101907.50;;;0.64;81.33
73457;BME280;61691;53.072;6.582;2024-03-08T06:13:55;101915.13;;;0.70;81.64
73457;BME280;61691;53.072;6.582;2024-03-08T06:16:27;101930.44;;;0.82;81.39
73457;BME280;61691;53.072;6.582;2024-03-08T06:18:56;101935.66;;;0.82;81.45
73457;BME280;61691;53.072;6.582;2024-03-08T06:21:24;101855.25;;;0.37;81.59
73457;BME280;61691;53.072;6.582;2024-03-08T06:23:54;101939.06;;;0.84;81.35
73457;BME280;61691;53.072;6.582;2024-03-08T06:26:22;101915.72;;;0.80;81.48
73457;BME280;61691;53.072;6.582;2024-03-08T06:28:49;101922.66;;;0.81;81.25
73457;BME280;61691;53.072;6.582;2024-03-08T06:31:17;101925.97;;;0.86;81.17
73457;BME280;61691;53.072;6.582;2024-03-08T06:33:45;101906.34;;;0.74;81.42
73457;BME280;61691;53.072;6.582;2024-03-08T06:36:13;101922.38;;;0.90;81.38
73457;BME280;61691;53.072;6.582;2024-03-08T06:38:40;101897.31;;;0.84;80.92
73457;BME280;61691;53.072;6.582;2024-03-08T06:41:09;101904.25;;;0.85;81.44
73457;BME280;61691;53.072;6.582;2024-03-08T06:43:43;101913.75;;;0.88;81.49
73457;BME280;61691;53.072;6.582;2024-03-08T06:46:11;101875.19;;;0.68;81.02
73457;BME280;61691;53.072;6.582;2024-03-08T06:48:41;101911.78;;;0.94;81.25
73457;BME280;61691;53.072;6.582;2024-03-08T06:51:08;101875.03;;;0.74;80.80
73457;BME280;61691;53.072;6.582;2024-03-08T06:53:37;101896.31;;;0.88;80.63
73457;BME280;61691;53.072;6.582;2024-03-08T06:56:06;101921.06;;;1.04;81.04
73457;BME280;61691;53.072;6.582;2024-03-08T06:58:35;101919.22;;;1.06;80.97
73457;BME280;61691;53.072;6.582;2024-03-08T07:01:02;101857.66;;;0.73;80.76
73457;BME280;61691;53.072;6.582;2024-03-08T07:03:31;101912.13;;;1.11;81.01
73457;BME280;61691;53.072;6.582;2024-03-08T07:06:00;101921.53;;;1.17;80.61
73457;BME280;61691;53.072;6.582;2024-03-08T07:08:30;101930.91;;;1.23;80.92
73457;BME280;61691;53.072;6.582;2024-03-08T07:10:57;101924.72;;;1.27;81.00
73457;BME280;61691;53.072;6.582;2024-03-08T07:13:26;101891.03;;;1.17;80.65
73457;BME280;61691;53.072;6.582;2024-03-08T07:15:56;101924.72;;;1.27;80.32
73457;BME280;61691;53.072;6.582;2024-03-08T07:18:27;101892.09;;;1.12;80.56
73457;BME280;61691;53.072;6.582;2024-03-08T07:20:57;101917.56;;;1.32;80.08
73457;BME280;61691;53.072;6.582;2024-03-08T07:23:25;101909.03;;;1.27;80.56
73457;BME280;61691;53.072;6.582;2024-03-08T07:26:11;101913.16;;;1.34;80.34
73457;BME280;61691;53.072;6.582;2024-03-08T07:28:41;101871.75;;;1.22;80.21
73457;BME280;61691;53.072;6.582;2024-03-08T07:31:09;101908.28;;;1.49;80.05
73457;BME280;61691;53.072;6.582;2024-03-08T07:33:39;101899.78;;;1.43;79.63
73457;BME280;61691;53.072;6.582;2024-03-08T07:36:07;101910.72;;;1.54;79.62
73457;BME280;61691;53.072;6.582;2024-03-08T07:38:34;101876.25;;;1.43;79.88
73457;BME280;61691;53.072;6.582;2024-03-08T07:41:01;101889.03;;;1.52;79.40
73457;BME280;61691;53.072;6.582;2024-03-08T07:43:31;101882.50;;;1.65;79.70
73457;BME280;61691;53.072;6.582;2024-03-08T07:46:00;101887.38;;;1.74;79.05
73457;BME280;61691;53.072;6.582;2024-03-08T07:48:27;101839.50;;;1.49;78.87
73457;BME280;61691;53.072;6.582;2024-03-08T07:50:55;101868.19;;;1.75;79.50
73457;BME280;61691;53.072;6.582;2024-03-08T07:53:23;101858.63;;;1.74;79.36
73457;BME280;61691;53.072;6.582;2024-03-08T07:55:53;101801.31;;;1.45;78.72
73457;BME280;61691;53.072;6.582;2024-03-08T07:58:21;101865.22;;;1.86;78.79
73457;BME280;61691;53.072;6.582;2024-03-08T08:00:48;101840.97;;;1.81;78.04
73457;BME280;61691;53.072;6.582;2024-03-08T08:03:16;101865.53;;;2.02;78.64
73457;BME280;61691;53.072;6.582;2024-03-08T08:05:48;101861.88;;;2.06;77.93
73457;BME280;61691;53.072;6.582;2024-03-08T08:08:16;101859.16;;;2.09;78.39
73457;BME280;61691;53.072;6.582;2024-03-08T08:10:43;101856.09;;;2.21;77.68
73457;BME280;61691;53.072;6.582;2024-03-08T08:13:11;101857.13;;;2.17;77.67
73457;BME280;61691;53.072;6.582;2024-03-08T08:15:38;101875.66;;;2.34;77.26
73457;BME280;61691;53.072;6.582;2024-03-08T08:18:06;101846.19;;;2.29;77.68
73457;BME280;61691;53.072;6.582;2024-03-08T08:20:34;101841.53;;;2.37;77.44
73457;BME280;61691;53.072;6.582;2024-03-08T08:23:01;101862.13;;;2.46;77.45
73457;BME280;61691;53.072;6.582;2024-03-08T08:25:29;101845.38;;;2.50;76.99
73457;BME280;61691;53.072;6.582;2024-03-08T08:27:56;101862.50;;;2.59;76.40
73457;BME280;61691;53.072;6.582;2024-03-08T08:30:24;101858.16;;;2.58;76.51
73457;BME280;61691;53.072;6.582;2024-03-08T08:32:51;101835.59;;;2.55;76.51
73457;BME280;61691;53.072;6.582;2024-03-08T08:35:18;101830.13;;;2.61;76.74
73457;BME280;61691;53.072;6.582;2024-03-08T08:37:47;101846.66;;;2.85;76.51
73457;BME280;61691;53.072;6.582;2024-03-08T08:40:14;101843.84;;;2.90;76.48
73457;BME280;61691;53.072;6.582;2024-03-08T08:42:42;101823.91;;;2.86;75.50
73457;BME280;61691;53.072;6.582;2024-03-08T08:45:10;101831.22;;;2.99;74.96
73457;BME280;61691;53.072;6.582;2024-03-08T08:47:46;101751.97;;;2.52;75.36
73457;BME280;61691;53.072;6.582;2024-03-08T08:50:14;101816.78;;;2.89;75.25
73457;BME280;61691;53.072;6.582;2024-03-08T08:52:43;101797.72;;;2.86;74.67
73457;BME280;61691;53.072;6.582;2024-03-08T08:55:11;101821.41;;;3.04;74.00
73457;BME280;61691;53.072;6.582;2024-03-08T08:57:42;101799.06;;;2.96;74.14
73457;BME280;61691;53.072;6.582;2024-03-08T09:00:10;101780.06;;;2.91;73.65
73457;BME280;61691;53.072;6.582;2024-03-08T09:02:42;101800.50;;;3.03;74.21
73457;BME280;61691;53.072;6.582;2024-03-08T09:05:10;101819.13;;;3.17;74.07
73457;BME280;61691;53.072;6.582;2024-03-08T09:07:39;101805.13;;;3.18;74.21
73457;BME280;61691;53.072;6.582;2024-03-08T09:10:06;101789.66;;;3.12;73.43
73457;BME280;61691;53.072;6.582;2024-03-08T09:12:39;101787.84;;;3.14;73.45
73457;BME280;61691;53.072;6.582;2024-03-08T09:15:07;101785.88;;;3.19;72.98
73457;BME280;61691;53.072;6.582;2024-03-08T09:17:41;101701.88;;;2.82;73.74
73457;BME280;61691;53.072;6.582;2024-03-08T09:20:10;101776.56;;;3.32;73.63
73457;BME280;61691;53.072;6.582;2024-03-08T09:22:44;101775.59;;;3.35;72.30
73457;BME280;61691;53.072;6.582;2024-03-08T09:25:13;101761.69;;;3.33;72.76
73457;BME280;61691;53.072;6.582;2024-03-08T09:27:40;101747.88;;;3.29;72.42
73457;BME280;61691;53.072;6.582;2024-03-08T09:30:08;101742.56;;;3.31;72.71
73457;BME280;61691;53.072;6.582;2024-03-08T09:32:36;101721.22;;;3.20;71.07
73457;BME280;61691;53.072;6.582;2024-03-08T09:35:04;101771.19;;;3.56;70.57
73457;BME280;61691;53.072;6.582;2024-03-08T09:37:35;101752.69;;;3.38;71.14
73457;BME280;61691;53.072;6.582;2024-03-08T09:40:03;101771.41;;;3.51;71.14
73457;BME280;61691;53.072;6.582;2024-03-08T09:42:37;101772.09;;;3.55;70.89
73457;BME280;61691;53.072;6.582;2024-03-08T09:45:08;101762.19;;;3.61;71.11
73457;BME280;61691;53.072;6.582;2024-03-08T09:47:41;101749.00;;;3.63;70.94
73457;BME280;61691;53.072;6.582;2024-03-08T09:50:08;101764.22;;;3.75;70.86
73457;BME280;61691;53.072;6.582;2024-03-08T09:52:39;101747.47;;;3.77;70.74
73457;BME280;61691;53.072;6.582;2024-03-08T09:55:07;101741.66;;;3.71;69.88
73457;BME280;61691;53.072;6.582;2024-03-08T09:57:36;101722.50;;;3.69;70.03
73457;BME280;61691;53.072;6.582;2024-03-08T10:00:04;101708.50;;;3.70;70.54
73457;BME280;61691;53.072;6.582;2024-03-08T10:02:53;101732.75;;;3.94;70.36
73457;BME280;61691;53.072;6.582;2024-03-08T10:05:21;101682.44;;;3.67;69.99
73457;BME280;61691;53.072;6.582;2024-03-08T10:07:49;101730.69;;;4.00;69.76
73457;BME280;61691;53.072;6.582;2024-03-08T10:10:16;101720.44;;;3.96;70.59
73457;BME280;61691;53.072;6.582;2024-03-08T10:12:44;101702.75;;;3.99;70.32
73457;BME280;61691;53.072;6.582;2024-03-08T10:15:12;101703.13;;;4.10;70.16
73457;BME280;61691;53.072;6.582;2024-03-08T10:17:43;101683.84;;;4.11;70.28
73457;BME280;61691;53.072;6.582;2024-03-08T10:20:18;101712.28;;;4.38;70.07
73457;BME280;61691;53.072;6.582;2024-03-08T10:22:46;101676.16;;;4.25;69.04
73457;BME280;61691;53.072;6.582;2024-03-08T10:25:33;101706.59;;;4.47;69.45
73457;BME280;61691;53.072;6.582;2024-03-08T10:28:03;101664.19;;;4.37;69.70
73457;BME280;61691;53.072;6.582;2024-03-08T10:30:31;101624.59;;;4.24;69.92
73457;BME280;61691;53.072;6.582;2024-03-08T10:32:59;101681.31;;;4.63;68.33
73457;BME280;61691;53.072;6.582;2024-03-08T10:35:27;101687.16;;;4.68;68.90
73457;BME280;61691;53.072;6.582;2024-03-08T10:37:56;101682.63;;;4.72;68.23
73457;BME280;61691;53.072;6.582;2024-03-08T10:40:27;101667.88;;;4.69;68.59
73457;BME280;61691;53.072;6.582;2024-03-08T10:42:59;101668.72;;;4.87;68.69
73457;BME280;61691;53.072;6.582;2024-03-08T10:45:39;101681.31;;;4.97;68.30
73457;BME280;61691;53.072;6.582;2024-03-08T10:48:28;101683.78;;;5.00;68.03
73457;BME280;61691;53.072;6.582;2024-03-08T10:51:05;101652.41;;;4.97;68.14
73457;BME280;61691;53.072;6.582;2024-03-08T10:53:33;101560.50;;;4.46;68.12
73457;BME280;61691;53.072;6.582;2024-03-08T10:56:01;101664.59;;;5.16;68.08
73457;BME280;61691;53.072;6.582;2024-03-08T10:58:29;101649.44;;;5.21;68.10
73457;BME280;61691;53.072;6.582;2024-03-08T11:00:57;101654.81;;;5.35;67.51
73457;BME280;61691;53.072;6.582;2024-03-08T11:06:08;101655.88;;;5.48;66.91
73457;BME280;61691;53.072;6.582;2024-03-08T11:08:39;101650.28;;;5.54;66.30
73457;BME280;61691;53.072;6.582;2024-03-08T11:11:32;101639.28;;;5.63;66.69
73457;BME280;61691;53.072;6.582;2024-03-08T11:14:02;101611.59;;;5.56;66.60
73457;BME280;61691;53.072;6.582;2024-03-08T11:21:58;101625.38;;;5.93;65.00
73457;BME280;61691;53.072;6.582;2024-03-08T11:24:26;101621.91;;;5.92;66.22
73457;BME280;61691;53.072;6.582;2024-03-08T11:26:57;101613.22;;;6.06;65.93
73457;BME280;61691;53.072;6.582;2024-03-08T11:32:23;101607.50;;;6.29;65.72
73457;BME280;61691;53.072;6.582;2024-03-08T11:34:55;101589.88;;;6.15;65.44
73457;BME280;61691;53.072;6.582;2024-03-08T11:37:22;101582.38;;;6.24;65.10
73457;BME280;61691;53.072;6.582;2024-03-08T11:39:54;101565.06;;;6.19;65.10
73457;BME280;61691;53.072;6.582;2024-03-08T11:42:31;101602.00;;;6.48;64.65
73457;BME280;61691;53.072;6.582;2024-03-08T11:44:59;101552.13;;;6.31;64.89
73457;BME280;61691;53.072;6.582;2024-03-08T11:47:26;101557.34;;;6.46;64.23
73457;BME280;61691;53.072;6.582;2024-03-08T11:49:53;101588.53;;;6.68;63.81
73457;BME280;61691;53.072;6.582;2024-03-08T11:52:21;101583.91;;;6.72;63.57
73457;BME280;61691;53.072;6.582;2024-03-08T11:54:52;101575.47;;;6.81;63.96
73457;BME280;61691;53.072;6.582;2024-03-08T11:57:25;101589.03;;;6.89;63.15
73457;BME280;61691;53.072;6.582;2024-03-08T11:59:54;101580.91;;;6.92;63.24
73457;BME280;61691;53.072;6.582;2024-03-08T12:02:25;101568.88;;;6.88;62.25
73457;BME280;61691;53.072;6.582;2024-03-08T12:05:00;101558.50;;;6.85;62.74
73457;BME280;61691;53.072;6.582;2024-03-08T12:07:30;101547.13;;;6.84;61.49
73457;BME280;61691;53.072;6.582;2024-03-08T12:13:06;101532.34;;;6.82;61.53
73457;BME280;61691;53.072;6.582;2024-03-08T12:15:40;101540.09;;;6.99;61.52
73457;BME280;61691;53.072;6.582;2024-03-08T12:18:08;101525.69;;;6.90;60.69
73457;BME280;61691;53.072;6.582;2024-03-08T12:20:37;101532.34;;;6.96;60.75
73457;BME280;61691;53.072;6.582;2024-03-08T12:23:13;101536.13;;;7.06;60.94
73457;BME280;61691;53.072;6.582;2024-03-08T12:25:41;101526.44;;;7.07;60.02
73457;BME280;61691;53.072;6.582;2024-03-08T12:28:12;101530.09;;;7.18;60.49
73457;BME280;61691;53.072;6.582;2024-03-08T12:30:51;101528.66;;;7.27;60.21
73457;BME280;61691;53.072;6.582;2024-03-08T12:33:21;101514.91;;;7.22;60.27
73457;BME280;61691;53.072;6.582;2024-03-08T12:35:53;101517.72;;;7.33;60.24
73457;BME280;61691;53.072;6.582;2024-03-08T12:38:23;101494.84;;;7.33;60.61
73457;BME280;61691;53.072;6.582;2024-03-08T12:41:00;101472.63;;;7.23;60.15
73457;BME280;61691;53.072;6.582;2024-03-08T12:43:29;101485.03;;;7.35;59.66
73457;BME280;61691;53.072;6.582;2024-03-08T12:45:59;101499.88;;;7.51;60.11
73457;BME280;61691;53.072;6.582;2024-03-08T12:48:26;101496.94;;;7.55;60.63
73457;BME280;61691;53.072;6.582;2024-03-08T12:50:53;101495.34;;;7.53;59.19
73457;BME280;61691;53.072;6.582;2024-03-08T12:53:22;101461.09;;;7.38;59.03
73457;BME280;61691;53.072;6.582;2024-03-08T12:55:50;101444.47;;;7.51;59.28
73457;BME280;61691;53.072;6.582;2024-03-08T12:58:18;101477.56;;;7.69;59.58
73457;BME280;61691;53.072;6.582;2024-03-08T13:00:47;101468.50;;;7.73;59.28
73457;BME280;61691;53.072;6.582;2024-03-08T13:03:21;101458.69;;;7.75;59.29
73457;BME280;61691;53.072;6.582;2024-03-08T13:05:50;101462.41;;;7.85;58.72
73457;BME280;61691;53.072;6.582;2024-03-08T13:08:17;101448.69;;;7.80;57.98
73457;BME280;61691;53.072;6.582;2024-03-08T13:10:45;101438.31;;;7.77;57.20
73457;BME280;61691;53.072;6.582;2024-03-08T13:13:13;101426.66;;;7.67;57.17
73457;BME280;61691;53.072;6.582;2024-03-08T13:15:44;101445.09;;;7.81;57.56
73457;BME280;61691;53.072;6.582;2024-03-08T13:18:11;101444.13;;;7.82;57.35
73457;BME280;61691;53.072;6.582;2024-03-08T13:23:43;101398.22;;;7.72;57.55
73457;BME280;61691;53.072;6.582;2024-03-08T13:26:30;101426.75;;;7.92;57.16